createdAt,value
2022-12-13T04:05:10.440Z,98233.78
2022-12-13T04:08:21.635Z,98234.91
2022-12-13T04:11:43.568Z,98234.47
2022-12-13T04:14:53.480Z,98237.19
2022-12-13T04:18:03.284Z,98233.28
2022-12-13T04:21:14.377Z,98230.91
2022-12-13T04:24:30.948Z,98227.69
2022-12-13T04:27:41.821Z,98234.47
2022-12-13T04:30:52.766Z,98237.69
2022-12-13T04:34:03.655Z,98240.09
2022-12-13T04:37:15.082Z,98238.47
2022-12-13T04:40:25.096Z,98240.44
2022-12-13T04:43:34.931Z,98232.84
2022-12-13T04:46:44.570Z,98232.03
2022-12-13T04:49:55.091Z,98236.47
2022-12-13T04:53:06.211Z,98235.13
2022-12-13T04:56:16.041Z,98232.47
2022-12-13T04:59:26.234Z,98227.28
2022-12-13T05:02:36.417Z,98238.25
2022-12-13T05:05:46.130Z,98234.34
2022-12-13T05:09:00.803Z,98241.84
2022-12-13T05:12:12.991Z,98243.44
2022-12-13T05:15:36.428Z,98239.00
2022-12-13T05:18:46.155Z,98231.75
2022-12-13T05:21:55.802Z,98226.47
2022-12-13T05:25:12.253Z,98227.47
2022-12-13T05:28:28.518Z,98231.66
2022-12-13T05:31:38.512Z,98234.41
2022-12-13T05:34:48.309Z,98231.25
2022-12-13T05:37:58.049Z,98226.59
2022-12-13T05:41:17.392Z,98226.09
2022-12-13T05:44:27.240Z,98217.88
2022-12-13T05:47:36.966Z,98209.59
2022-12-13T05:50:46.814Z,98213.09
2022-12-13T05:53:56.531Z,98208.09
2022-12-13T05:57:07.644Z,98213.81
2022-12-13T06:00:28.340Z,98209.09
2022-12-13T06:03:40.002Z,98218.28
2022-12-13T06:06:51.267Z,98220.97
2022-12-13T06:10:09.752Z,98220.84
2022-12-13T06:13:31.960Z,98231.81
2022-12-13T06:16:42.321Z,98229.81
2022-12-13T06:19:52.543Z,98231.03
2022-12-13T06:23:02.238Z,98227.41
2022-12-13T06:26:11.955Z,98222.00
2022-12-13T06:29:25.792Z,98220.78
2022-12-13T06:32:39.966Z,98213.31
2022-12-13T06:35:52.814Z,98225.66
2022-12-13T06:39:03.557Z,98216.00
2022-12-13T06:42:21.905Z,98220.53
2022-12-13T06:45:33.595Z,98220.53
2022-12-13T06:48:45.133Z,98219.31
2022-12-13T06:51:54.829Z,98220.28
2022-12-13T06:55:05.886Z,98223.81
2022-12-13T06:58:15.690Z,98239.69
2022-12-13T07:01:26.798Z,98236.88
2022-12-13T07:04:36.657Z,98231.09
2022-12-13T07:07:46.326Z,98230.66
2022-12-13T07:10:56.735Z,98226.78
2022-12-13T07:14:06.488Z,98226.38
2022-12-13T07:17:32.295Z,98228.41
2022-12-13T07:20:44.589Z,98243.84
2022-12-13T11:34:32.856Z,98134.22
2022-12-13T11:37:50.531Z,98124.09
2022-12-13T11:41:11.238Z,98115.78
2022-12-13T11:44:29.466Z,98118.00
2022-12-13T11:47:45.086Z,98123.03
2022-12-13T11:50:57.331Z,98112.94
2022-12-13T11:58:16.614Z,98106.47
2022-12-13T12:01:38.123Z,98094.38
2022-12-13T12:04:59.652Z,98099.09
2022-12-13T12:08:31.065Z,98086.66
2022-12-13T12:11:50.022Z,98097.28
2022-12-13T12:15:15.626Z,98087.16
2022-12-13T12:18:27.533Z,98076.09
2022-12-13T12:22:12.790Z,98073.56
2022-12-13T12:25:29.149Z,98072.03
2022-12-13T12:29:01.283Z,98072.81
2022-12-13T12:32:23.515Z,98069.00
2022-12-13T12:35:57.665Z,98074.81
2022-12-13T12:39:26.231Z,98085.56
2022-12-13T12:43:13.739Z,98082.47
2022-12-13T12:47:08.975Z,98078.94
2022-12-13T12:50:24.392Z,98088.13
2022-12-13T12:53:43.020Z,98089.66
2022-12-13T12:57:07.880Z,98097.38
2022-12-13T13:00:22.920Z,98097.16
2022-12-13T13:03:37.450Z,98096.00
2022-12-13T13:06:52.918Z,98095.91
2022-12-13T13:10:16.320Z,98088.97
2022-12-13T13:13:36.416Z,98081.34
2022-12-13T13:16:59.036Z,98080.31
2022-12-13T13:20:19.285Z,98067.91
2022-12-13T13:23:39.929Z,98065.13
2022-12-13T13:26:53.686Z,98069.47
2022-12-13T13:30:08.865Z,98079.81
2022-12-13T13:33:45.167Z,98080.34
2022-12-13T13:36:57.423Z,98092.66
2022-12-13T13:40:31.765Z,98083.81
2022-12-13T13:43:42.699Z,98073.88
2022-12-13T13:47:12.628Z,98065.81
2022-12-13T13:50:43.868Z,98062.66
2022-12-13T13:54:19.627Z,98064.16
2022-12-13T13:58:10.970Z,98051.94
2022-12-13T14:01:40.532Z,98053.81
2022-12-13T14:05:16.617Z,98061.13
2022-12-13T14:08:36.999Z,98064.88
2022-12-13T14:12:08.588Z,98074.25
2022-12-13T14:15:55.588Z,98072.09
2022-12-13T14:19:28.820Z,98071.44
2022-12-13T14:22:44.607Z,98067.50
2022-12-13T14:26:13.987Z,98073.44
2022-12-13T14:29:29.419Z,98078.09
2022-12-13T14:32:41.009Z,98070.38
2022-12-13T14:35:53.627Z,98065.00
2022-12-13T14:39:07.217Z,98056.41
2022-12-13T14:42:37.756Z,98055.72
2022-12-13T14:45:57.410Z,98063.25
2022-12-13T14:49:13.000Z,98059.84
2022-12-13T14:52:27.945Z,98051.25
2022-12-13T14:55:38.749Z,98046.56
2022-12-13T14:58:56.465Z,98044.38
2022-12-13T15:02:07.273Z,98040.44
2022-12-13T15:05:28.954Z,98038.16
2022-12-13T15:08:42.059Z,98041.38
2022-12-13T15:11:54.625Z,98032.56
2022-12-13T15:15:18.920Z,98041.03
2022-12-13T15:18:33.068Z,98036.41
2022-12-13T15:22:01.738Z,98021.03
2022-12-13T15:25:16.614Z,98004.16
2022-12-13T15:28:32.671Z,98002.75
2022-12-13T15:31:48.989Z,97998.13
2022-12-13T15:35:16.649Z,97993.84
2022-12-13T15:38:28.764Z,97997.25
2022-12-13T15:41:46.741Z,97997.44
2022-12-13T15:44:59.862Z,97993.50
2022-12-13T15:48:26.192Z,97997.66
2022-12-13T15:51:55.772Z,97981.53
2022-12-13T15:55:28.457Z,97972.41
2022-12-13T15:58:39.791Z,97973.50
2022-12-13T16:01:57.873Z,97975.44
2022-12-13T16:05:26.646Z,97986.38
2022-12-13T16:08:39.904Z,97972.06
2022-12-13T16:11:54.692Z,97968.66
2022-12-13T16:15:20.263Z,97963.25
2022-12-13T16:18:45.892Z,97961.47
2022-12-13T16:21:58.223Z,97972.03
2022-12-13T16:25:12.236Z,97972.38
2022-12-13T16:28:26.272Z,97973.44
2022-12-13T16:31:37.287Z,97981.31
2022-12-13T16:34:48.408Z,97985.25
2022-12-13T16:38:09.128Z,97985.94
2022-12-13T16:41:22.301Z,97975.56
2022-12-13T16:44:36.473Z,97978.81
2022-12-13T16:47:49.801Z,97970.59
2022-12-13T16:51:00.662Z,97963.44
2022-12-13T16:54:12.690Z,97948.72
2022-12-13T16:57:23.497Z,97950.72
2022-12-13T17:00:34.455Z,97950.03
2022-12-13T17:03:45.370Z,97951.09
2022-12-13T17:06:56.203Z,97948.03
2022-12-13T17:10:09.356Z,97950.56
2022-12-13T17:13:20.127Z,97950.03
2022-12-13T17:16:30.835Z,97944.84
2022-12-13T17:19:41.696Z,97949.13
2022-12-13T17:22:52.717Z,97958.47
2022-12-13T17:26:07.274Z,97961.84
2022-12-13T17:29:18.076Z,97958.09
2022-12-13T17:32:29.675Z,97948.41
2022-12-13T17:35:40.985Z,97951.28
2022-12-13T17:38:52.265Z,97936.75
2022-12-13T17:42:04.804Z,97934.44
2022-12-13T17:45:16.966Z,97938.72
2022-12-13T17:48:29.699Z,97928.69
2022-12-13T17:51:43.326Z,97925.84
2022-12-13T17:55:04.629Z,97928.34
2022-12-13T17:58:16.577Z,97927.25
2022-12-13T18:01:30.523Z,97915.22
2022-12-13T18:04:42.545Z,97918.66
2022-12-13T18:07:53.278Z,97892.88
2022-12-13T18:14:38.013Z,97878.34
2022-12-13T18:18:10.804Z,97883.13
2022-12-13T18:21:20.759Z,97876.69
2022-12-13T18:24:32.739Z,97896.53
2022-12-13T18:27:44.132Z,97898.53
2022-12-13T18:31:00.066Z,97905.34
2022-12-13T18:34:11.950Z,97910.41
2022-12-13T18:37:25.260Z,97929.59
2022-12-13T18:40:41.963Z,97907.00
2022-12-13T18:44:00.003Z,97896.56
2022-12-13T18:47:19.449Z,97877.72
2022-12-13T18:50:35.743Z,97892.41
2022-12-13T18:53:50.051Z,97888.25
2022-12-13T18:57:05.060Z,97895.25
2022-12-13T19:00:19.439Z,97891.13
2022-12-13T19:03:37.845Z,97883.13
2022-12-13T19:06:51.548Z,97887.25
2022-12-13T19:10:08.612Z,97880.28
2022-12-13T19:13:23.841Z,97881.38
2022-12-13T19:16:37.784Z,97879.56
2022-12-13T19:19:54.545Z,97881.91
2022-12-13T19:23:08.858Z,97887.13
2022-12-13T19:26:24.066Z,97884.63
2022-12-13T19:29:42.358Z,97863.13
2022-12-13T19:32:56.792Z,97854.88
2022-12-13T19:36:12.837Z,97866.66
2022-12-13T19:39:27.492Z,97858.72
2022-12-13T19:42:41.504Z,97844.75
2022-12-13T19:45:55.801Z,97854.22
2022-12-13T19:49:12.649Z,97846.19
2022-12-13T19:52:28.589Z,97857.66
2022-12-13T19:55:48.246Z,97856.94
2022-12-13T19:59:02.822Z,97847.69
2022-12-13T20:02:17.936Z,97841.22
2022-12-13T20:05:31.774Z,97833.19
2022-12-13T20:08:53.569Z,97836.53
2022-12-13T20:12:07.302Z,97837.91
2022-12-13T20:15:21.565Z,97833.59
2022-12-13T20:18:38.894Z,97828.91
2022-12-13T20:21:57.069Z,97824.06
2022-12-13T20:25:13.353Z,97828.00
2022-12-13T20:28:27.522Z,97835.34
2022-12-13T20:31:48.356Z,97833.56
2022-12-13T20:35:02.625Z,97831.78
2022-12-13T20:38:16.328Z,97809.19
2022-12-13T20:41:36.675Z,97803.06
2022-12-13T20:44:52.269Z,97790.34
2022-12-13T20:48:05.853Z,97768.69
2022-12-13T20:51:21.336Z,97767.78
2022-12-13T20:54:35.226Z,97770.69
2022-12-13T20:57:53.343Z,97776.81
2022-12-13T21:01:05.159Z,97767.66
2022-12-13T21:04:15.835Z,97760.88
2022-12-13T21:07:40.348Z,97761.94
2022-12-13T21:10:51.465Z,97765.09
2022-12-13T21:14:11.016Z,97757.25
2022-12-13T21:17:24.197Z,97762.69
2022-12-13T21:20:35.057Z,97763.19
2022-12-13T21:23:45.868Z,97762.31
2022-12-13T21:26:57.719Z,97759.06
2022-12-13T21:30:10.526Z,97751.16
2022-12-13T21:33:21.294Z,97752.91
2022-12-13T21:36:35.357Z,97742.16
2022-12-13T21:39:46.338Z,97725.09
2022-12-13T21:42:56.996Z,97707.47
2022-12-13T21:46:10.802Z,97707.81
2022-12-13T21:49:21.429Z,97693.97
2022-12-13T21:52:34.458Z,97688.94
2022-12-13T21:55:45.457Z,97685.88
2022-12-13T21:59:09.388Z,97687.16
2022-12-13T22:02:22.453Z,97677.13
2022-12-13T22:05:33.263Z,97672.81
2022-12-13T22:08:44.079Z,97662.94
2022-12-13T22:11:54.805Z,97646.66
2022-12-13T22:15:07.184Z,97636.84
2022-12-13T22:18:19.006Z,97637.41
2022-12-13T22:21:29.766Z,97632.16
2022-12-13T22:24:40.557Z,97627.97
2022-12-13T22:27:51.208Z,97623.28
2022-12-13T22:31:02.067Z,97625.63
2022-12-13T22:34:14.062Z,97636.59
2022-12-13T22:37:26.023Z,97646.44
2022-12-13T22:40:39.731Z,97640.44
2022-12-13T22:43:50.528Z,97631.03
2022-12-13T22:47:01.449Z,97647.09
2022-12-13T22:50:13.400Z,97653.84
2022-12-13T22:53:24.143Z,97659.56
2022-12-13T22:56:35.011Z,97639.47
2022-12-13T22:59:45.375Z,97637.59
2022-12-13T23:02:56.510Z,97642.63
2022-12-13T23:06:10.323Z,97651.22
2022-12-13T23:09:21.049Z,97637.22
2022-12-13T23:12:42.760Z,97625.53
2022-12-13T23:15:53.525Z,97619.31
2022-12-13T23:19:32.104Z,97619.31
2022-12-13T23:22:37.334Z,97613.63
2022-12-13T23:25:49.025Z,97612.75
2022-12-13T23:29:01.389Z,97606.41
2022-12-13T23:32:12.194Z,97615.25
2022-12-13T23:35:23.283Z,97596.44
2022-12-13T23:38:35.757Z,97603.09
